createdAt,value
2022-09-30T00:00:52.918Z,45.44
2022-09-30T00:01:52.922Z,45.44
2022-09-30T00:02:52.936Z,46.73
2022-09-30T00:03:52.881Z,49.15
2022-09-30T00:04:52.879Z,50.92
2022-09-30T00:05:52.882Z,54.62
2022-09-30T00:06:52.862Z,50.60
2022-09-30T00:07:52.858Z,50.11
2022-09-30T00:08:52.845Z,49.31
2022-09-30T00:09:52.837Z,48.98
2022-09-30T00:10:52.853Z,49.31
2022-09-30T00:11:52.831Z,55.59
2022-09-30T00:12:52.815Z,50.43
2022-09-30T00:13:52.815Z,47.21
2022-09-30T00:14:52.815Z,49.31
2022-09-30T00:15:52.834Z,46.08
2022-09-30T00:16:52.820Z,46.25
2022-09-30T00:17:52.788Z,46.08
2022-09-30T00:18:52.773Z,45.92
2022-09-30T00:19:52.792Z,50.60
2022-09-30T00:20:52.771Z,48.34
2022-09-30T00:21:52.765Z,46.89
2022-09-30T00:22:52.763Z,48.34
2022-09-30T00:23:52.747Z,49.63
2022-09-30T00:24:52.749Z,48.66
2022-09-30T00:25:52.741Z,50.27
2022-09-30T00:26:52.748Z,48.66
2022-09-30T00:27:52.730Z,49.15
2022-09-30T00:28:52.722Z,49.47
2022-09-30T00:29:52.802Z,47.53
2022-09-30T00:30:52.709Z,50.60
2022-09-30T00:31:52.727Z,47.05
2022-09-30T00:32:52.702Z,51.08
2022-09-30T00:33:52.675Z,48.34
2022-09-30T00:34:52.680Z,50.11
2022-09-30T00:35:52.668Z,49.15
2022-09-30T00:36:52.659Z,50.76
2022-09-30T00:37:52.678Z,49.79
2022-09-30T00:38:52.647Z,46.73
2022-09-30T00:39:52.635Z,47.70
2022-09-30T00:40:52.631Z,53.82
2022-09-30T00:41:52.631Z,51.24
2022-09-30T00:42:53.644Z,49.31
2022-09-30T00:43:52.611Z,45.92
2022-09-30T00:44:52.604Z,46.25
2022-09-30T00:45:52.598Z,46.73
2022-09-30T00:46:52.660Z,47.86
2022-09-30T00:47:52.586Z,47.70
2022-09-30T00:48:52.571Z,47.53
2022-09-30T00:49:52.575Z,45.44
2022-09-30T00:50:52.563Z,45.44
2022-09-30T00:51:52.551Z,48.34
2022-09-30T00:52:52.571Z,48.50
2022-09-30T00:53:52.543Z,48.34
2022-09-30T00:54:52.527Z,48.66
2022-09-30T00:55:52.537Z,49.31
2022-09-30T00:56:52.535Z,48.82
2022-09-30T00:57:52.531Z,47.70
2022-09-30T00:58:52.527Z,45.28
2022-09-30T00:59:52.517Z,45.76
2022-09-30T01:00:52.553Z,47.70
2022-09-30T01:01:52.551Z,48.66
2022-09-30T01:02:52.505Z,45.60
2022-09-30T01:03:52.490Z,46.08
2022-09-30T01:04:52.474Z,50.11
2022-09-30T01:05:52.475Z,48.34
2022-09-30T01:06:52.460Z,47.37
2022-09-30T01:07:52.463Z,47.37
2022-09-30T01:08:52.462Z,46.89
2022-09-30T01:09:52.450Z,48.98
2022-09-30T01:10:52.439Z,47.05
2022-09-30T01:11:52.424Z,50.43
2022-09-30T01:12:52.422Z,47.37
2022-09-30T01:13:52.428Z,49.47
2022-09-30T01:14:52.421Z,49.15
2022-09-30T01:15:52.421Z,48.50
2022-09-30T01:16:52.411Z,47.70
2022-09-30T01:17:52.387Z,45.76
2022-09-30T01:18:52.390Z,46.08
2022-09-30T01:19:52.380Z,45.28
2022-09-30T01:20:52.371Z,48.50
2022-09-30T01:21:52.367Z,45.92
2022-09-30T01:22:52.361Z,45.60
2022-09-30T01:23:52.366Z,46.73
2022-09-30T01:24:52.338Z,45.92
2022-09-30T01:25:52.343Z,45.92
2022-09-30T01:26:52.327Z,48.02
2022-09-30T01:27:52.324Z,46.89
2022-09-30T01:28:52.322Z,47.21
2022-09-30T01:29:52.322Z,48.98
2022-09-30T01:30:52.303Z,48.50
2022-09-30T01:31:52.353Z,47.86
2022-09-30T01:32:52.290Z,48.02
2022-09-30T01:33:52.287Z,47.53
2022-09-30T01:34:52.286Z,47.53
2022-09-30T01:35:52.270Z,44.79
2022-09-30T01:36:52.270Z,45.28
2022-09-30T01:37:52.260Z,48.50
2022-09-30T01:38:52.250Z,46.73
2022-09-30T01:39:52.262Z,45.28
2022-09-30T01:40:52.303Z,48.98
2022-09-30T01:41:52.246Z,51.72
2022-09-30T01:42:52.231Z,50.11
2022-09-30T01:43:52.222Z,49.15
2022-09-30T01:44:52.238Z,48.82
2022-09-30T01:45:52.226Z,48.18
2022-09-30T01:46:52.232Z,48.82
2022-09-30T01:47:52.194Z,49.47
2022-09-30T01:48:52.300Z,50.92
2022-09-30T01:49:52.194Z,49.31
2022-09-30T01:50:52.187Z,47.86
2022-09-30T01:51:52.166Z,47.21
2022-09-30T01:52:52.170Z,47.37
2022-09-30T01:53:52.164Z,49.47
2022-09-30T01:54:52.154Z,47.21
2022-09-30T01:55:52.154Z,46.89
2022-09-30T01:56:52.153Z,48.18
2022-09-30T01:57:52.143Z,46.08
2022-09-30T01:58:52.132Z,46.25
2022-09-30T01:59:52.158Z,49.31
2022-09-30T02:00:52.165Z,47.70
2022-09-30T02:01:52.130Z,47.05
2022-09-30T02:02:52.107Z,48.02
2022-09-30T02:03:52.098Z,48.50
2022-09-30T02:04:52.126Z,46.25
2022-09-30T02:05:52.102Z,47.21
2022-09-30T02:06:52.082Z,52.85
2022-09-30T02:07:52.075Z,51.08
2022-09-30T02:08:52.063Z,45.92
2022-09-30T02:09:52.058Z,47.37
2022-09-30T02:10:52.058Z,45.60
2022-09-30T02:11:52.062Z,49.63
2022-09-30T02:12:52.030Z,46.89
2022-09-30T02:13:52.037Z,47.37
2022-09-30T02:14:52.031Z,47.70
2022-09-30T02:15:52.031Z,48.82
2022-09-30T02:16:52.022Z,48.50
2022-09-30T02:17:52.007Z,50.76
2022-09-30T02:18:51.990Z,48.02
2022-09-30T02:19:51.986Z,49.15
2022-09-30T02:20:52.011Z,47.70
2022-09-30T02:21:51.994Z,49.31
2022-09-30T02:22:51.974Z,47.37
2022-09-30T02:23:51.966Z,48.98
2022-09-30T02:24:51.963Z,48.66
2022-09-30T02:25:51.956Z,47.21
2022-09-30T02:26:51.971Z,48.50
2022-09-30T02:27:51.934Z,49.47
2022-09-30T02:28:51.930Z,47.05
2022-09-30T02:29:51.929Z,46.89
2022-09-30T02:30:51.916Z,46.57
2022-09-30T02:31:52.062Z,48.18
2022-09-30T02:32:51.909Z,48.18
2022-09-30T02:33:51.901Z,48.02
2022-09-30T02:34:51.891Z,49.15
2022-09-30T02:35:51.888Z,52.21
2022-09-30T02:36:51.934Z,51.72
2022-09-30T02:37:51.884Z,48.98
2022-09-30T02:38:51.877Z,48.34
2022-09-30T02:39:51.863Z,50.60
2022-09-30T02:40:51.861Z,48.34
2022-09-30T02:41:51.927Z,46.41
2022-09-30T02:42:51.899Z,45.92
2022-09-30T02:43:51.841Z,45.76
2022-09-30T02:44:51.835Z,48.18
2022-09-30T02:45:51.824Z,48.66
2022-09-30T02:46:51.835Z,48.34
2022-09-30T02:47:51.844Z,50.60
2022-09-30T02:48:51.800Z,51.56
2022-09-30T02:49:51.801Z,50.27
2022-09-30T02:50:51.799Z,52.37
2022-09-30T02:51:51.775Z,48.82
2022-09-30T02:52:52.780Z,49.79
2022-09-30T02:53:51.775Z,48.66
2022-09-30T02:54:51.775Z,48.34
2022-09-30T02:55:51.769Z,49.79
2022-09-30T02:56:51.755Z,49.79
2022-09-30T02:57:51.743Z,51.88
2022-09-30T02:58:51.739Z,51.08
2022-09-30T02:59:51.752Z,52.85
2022-09-30T03:00:51.765Z,51.88
2022-09-30T03:01:51.816Z,51.88
2022-09-30T03:02:51.716Z,53.33
2022-09-30T03:03:51.710Z,49.63
2022-09-30T03:04:51.711Z,49.31
2022-09-30T03:05:51.705Z,49.79
2022-09-30T03:06:51.695Z,48.82
2022-09-30T03:07:51.679Z,50.11
2022-09-30T03:08:51.671Z,51.72
2022-09-30T03:09:51.674Z,51.40
2022-09-30T03:10:51.665Z,51.56
2022-09-30T03:11:51.660Z,49.47
2022-09-30T03:12:51.647Z,50.11
2022-09-30T03:13:51.639Z,50.76
2022-09-30T03:14:51.662Z,51.40
2022-09-30T03:15:51.653Z,53.33
2022-09-30T03:16:51.721Z,53.01
2022-09-30T03:17:51.615Z,51.40
2022-09-30T03:18:51.610Z,51.40
2022-09-30T03:19:51.587Z,51.40
2022-09-30T03:20:51.606Z,53.33
2022-09-30T03:21:51.587Z,52.53
2022-09-30T03:22:51.564Z,51.88
2022-09-30T03:23:51.575Z,54.14
2022-09-30T03:24:51.567Z,54.30
2022-09-30T03:25:51.572Z,53.98
2022-09-30T03:26:51.552Z,55.91
2022-09-30T03:27:51.544Z,53.17
2022-09-30T03:28:51.526Z,53.33
2022-09-30T03:29:51.535Z,52.85
2022-09-30T03:30:51.547Z,54.62
2022-09-30T03:31:51.599Z,54.30
2022-09-30T03:32:51.515Z,53.17
2022-09-30T03:33:51.512Z,53.50
2022-09-30T03:34:51.487Z,53.33
2022-09-30T03:35:51.516Z,54.30
2022-09-30T03:36:51.515Z,51.88
2022-09-30T03:37:51.487Z,54.62
2022-09-30T03:38:51.475Z,54.46
2022-09-30T03:39:51.471Z,53.50
2022-09-30T03:40:51.463Z,53.50
2022-09-30T03:41:51.480Z,52.85
2022-09-30T03:42:51.458Z,55.91
2022-09-30T03:43:51.476Z,54.46
2022-09-30T03:44:51.435Z,53.82
2022-09-30T03:45:51.430Z,53.50
2022-09-30T03:46:51.472Z,55.75
2022-09-30T03:47:51.559Z,54.62
2022-09-30T03:48:51.415Z,55.43
2022-09-30T03:49:51.403Z,55.43
2022-09-30T03:50:51.391Z,53.33
2022-09-30T03:51:51.387Z,53.33
2022-09-30T03:52:51.408Z,54.62
2022-09-30T03:53:51.367Z,53.01
2022-09-30T03:54:51.358Z,54.95
2022-09-30T03:55:51.365Z,56.07
2022-09-30T03:56:51.352Z,53.98
2022-09-30T03:57:51.361Z,55.59
2022-09-30T03:58:51.456Z,54.46
2022-09-30T03:59:51.327Z,54.30
2022-09-30T04:00:51.366Z,54.95
2022-09-30T04:01:51.362Z,52.53
2022-09-30T04:02:55.829Z,53.01
2022-09-30T04:03:53.321Z,53.50
2022-09-30T04:04:51.303Z,53.33
2022-09-30T04:05:51.294Z,52.05
2022-09-30T04:06:51.289Z,53.50
2022-09-30T04:07:51.283Z,54.46
2022-09-30T04:08:51.296Z,55.75
2022-09-30T04:09:51.352Z,54.30
2022-09-30T04:10:51.264Z,54.46
2022-09-30T04:11:51.255Z,56.24
2022-09-30T04:12:51.255Z,53.82
2022-09-30T04:13:51.246Z,54.46
2022-09-30T04:14:51.244Z,55.11
2022-09-30T04:15:51.246Z,56.88
2022-09-30T04:16:53.951Z,54.46
2022-09-30T04:17:52.219Z,56.40
2022-09-30T04:18:51.215Z,54.46
2022-09-30T04:19:51.215Z,55.43
2022-09-30T04:20:51.203Z,55.11
2022-09-30T04:21:51.196Z,53.82
2022-09-30T04:22:51.182Z,55.11
2022-09-30T04:23:51.212Z,56.88
2022-09-30T04:24:51.172Z,56.24
2022-09-30T04:25:51.172Z,56.24
2022-09-30T04:26:51.161Z,55.59
2022-09-30T04:27:51.141Z,55.11
2022-09-30T04:28:52.173Z,54.79
2022-09-30T04:29:51.135Z,53.98
2022-09-30T04:30:51.128Z,54.62
2022-09-30T04:31:51.150Z,55.27
2022-09-30T04:32:51.123Z,54.14
2022-09-30T04:33:51.136Z,56.88
2022-09-30T04:34:51.108Z,56.88
2022-09-30T04:35:51.095Z,57.20
2022-09-30T04:36:51.090Z,55.75
2022-09-30T04:37:51.084Z,56.72
2022-09-30T04:38:51.090Z,56.88
2022-09-30T04:39:51.085Z,58.01
2022-09-30T04:40:51.063Z,56.88
2022-09-30T04:41:51.055Z,56.88
2022-09-30T04:42:51.076Z,57.04
2022-09-30T04:43:51.050Z,58.65
2022-09-30T04:44:51.063Z,58.65
2022-09-30T04:45:51.065Z,58.81
2022-09-30T04:46:51.024Z,57.20
2022-09-30T04:47:51.020Z,56.56
2022-09-30T04:48:51.004Z,57.36
2022-09-30T04:49:51.000Z,56.56
2022-09-30T04:50:51.011Z,56.07
2022-09-30T04:51:51.037Z,54.30
2022-09-30T04:52:50.971Z,54.79
2022-09-30T04:53:50.975Z,57.04
2022-09-30T04:54:50.964Z,56.24
2022-09-30T04:55:50.960Z,56.24
2022-09-30T04:56:50.963Z,57.20
2022-09-30T04:57:50.960Z,56.24
2022-09-30T04:58:50.941Z,55.91
2022-09-30T04:59:50.963Z,55.59
2022-09-30T05:00:50.954Z,56.88
2022-09-30T05:01:51.037Z,57.04
2022-09-30T05:02:50.912Z,56.07
2022-09-30T05:03:50.916Z,55.91
2022-09-30T05:04:50.889Z,57.20
2022-09-30T05:05:50.895Z,55.27
2022-09-30T05:06:50.910Z,56.72
2022-09-30T05:07:50.878Z,54.79
2022-09-30T05:08:50.891Z,56.72
2022-09-30T05:09:51.866Z,54.14
2022-09-30T05:10:50.855Z,55.75
2022-09-30T05:11:50.864Z,56.07
2022-09-30T05:12:50.852Z,56.40
2022-09-30T05:13:50.831Z,57.36
2022-09-30T05:14:50.832Z,55.11
2022-09-30T05:15:51.842Z,56.88
2022-09-30T05:16:50.820Z,55.27
2022-09-30T05:17:50.827Z,53.82
2022-09-30T05:18:50.799Z,56.24
2022-09-30T05:19:50.795Z,56.40
2022-09-30T05:20:50.815Z,57.04
2022-09-30T05:21:50.771Z,56.24
2022-09-30T05:22:50.784Z,56.24
2022-09-30T05:23:50.769Z,55.75
2022-09-30T05:24:50.762Z,56.72
2022-09-30T05:25:50.764Z,57.20
2022-09-30T05:26:50.744Z,55.75
2022-09-30T05:27:50.752Z,56.88
2022-09-30T05:28:50.728Z,56.07
2022-09-30T05:29:50.712Z,57.04
2022-09-30T05:30:50.739Z,57.52
2022-09-30T05:31:50.737Z,57.36
2022-09-30T05:32:50.700Z,58.81
2022-09-30T05:33:54.580Z,58.01
2022-09-30T05:34:51.686Z,57.52
2022-09-30T05:35:50.670Z,56.72
2022-09-30T05:36:51.678Z,58.17
2022-09-30T05:37:50.684Z,57.85
2022-09-30T05:38:50.673Z,56.72
2022-09-30T05:39:50.655Z,58.01
2022-09-30T05:40:50.654Z,56.07
2022-09-30T05:41:50.643Z,57.04
2022-09-30T05:42:50.645Z,56.88
2022-09-30T05:43:50.632Z,56.40
2022-09-30T05:44:50.639Z,56.24
2022-09-30T05:45:50.674Z,57.52
2022-09-30T05:46:50.684Z,55.43
2022-09-30T05:47:50.598Z,56.72
2022-09-30T05:48:50.594Z,57.85
2022-09-30T05:49:55.368Z,58.01
2022-09-30T05:50:52.578Z,57.20
2022-09-30T05:51:50.578Z,55.59
2022-09-30T05:52:50.578Z,56.40
2022-09-30T05:53:50.566Z,54.79
2022-09-30T05:54:50.555Z,56.72
2022-09-30T05:55:50.567Z,56.56
2022-09-30T05:56:50.545Z,56.07
2022-09-30T05:57:50.535Z,57.20
2022-09-30T05:58:50.535Z,55.91
2022-09-30T05:59:50.526Z,56.56
2022-09-30T06:00:50.546Z,56.07
2022-09-30T06:01:50.605Z,55.75
2022-09-30T06:02:50.674Z,53.82
2022-09-30T06:03:50.494Z,53.82
2022-09-30T06:04:50.495Z,53.50
2022-09-30T06:05:50.486Z,54.95
2022-09-30T06:06:51.478Z,55.59
2022-09-30T06:07:50.617Z,55.11
2022-09-30T06:08:50.467Z,55.27
2022-09-30T06:09:50.508Z,55.59
2022-09-30T06:10:50.531Z,55.11
2022-09-30T06:11:50.453Z,56.72
2022-09-30T06:12:50.437Z,55.27
2022-09-30T06:13:50.441Z,53.33
2022-09-30T06:14:50.439Z,55.91
2022-09-30T06:15:50.426Z,54.62
2022-09-30T06:16:50.496Z,53.98
2022-09-30T06:17:50.418Z,54.46
2022-09-30T06:18:50.418Z,53.98
2022-09-30T06:19:50.398Z,56.40
2022-09-30T06:20:50.406Z,52.85
2022-09-30T06:21:50.406Z,57.04
2022-09-30T06:22:50.386Z,56.07
2022-09-30T06:23:50.378Z,55.43
2022-09-30T06:24:54.848Z,53.50
2022-09-30T06:25:51.360Z,55.91
2022-09-30T06:26:50.386Z,54.95
2022-09-30T06:27:50.346Z,56.40
2022-09-30T06:28:50.339Z,53.82
2022-09-30T06:29:50.333Z,52.85
2022-09-30T06:30:50.327Z,54.79
2022-09-30T06:31:50.391Z,54.62
2022-09-30T06:32:50.320Z,56.40
2022-09-30T06:33:50.307Z,54.95
2022-09-30T06:34:50.314Z,54.14
2022-09-30T06:35:50.291Z,55.59
2022-09-30T06:36:50.281Z,55.75
2022-09-30T06:37:50.291Z,56.07
2022-09-30T06:38:50.266Z,56.56
2022-09-30T06:39:50.270Z,55.75
2022-09-30T06:40:50.261Z,54.14
2022-09-30T06:41:50.254Z,54.79
2022-09-30T06:42:50.258Z,55.59
2022-09-30T06:44:00.011Z,53.66
2022-09-30T06:44:53.406Z,56.24
2022-09-30T06:45:51.482Z,56.07
2022-09-30T06:46:54.027Z,55.59
2022-09-30T06:47:59.548Z,56.88
2022-09-30T06:48:53.878Z,56.07
2022-09-30T06:49:50.381Z,54.79
2022-09-30T06:50:59.311Z,54.95
2022-09-30T06:51:52.209Z,54.30
2022-09-30T06:52:50.186Z,52.53
2022-09-30T06:53:53.288Z,57.52
2022-09-30T06:54:51.193Z,55.91
2022-09-30T06:55:50.190Z,56.07
2022-09-30T06:56:50.145Z,55.59
2022-09-30T06:57:50.142Z,55.75
2022-09-30T06:58:50.168Z,55.91
2022-09-30T06:59:50.133Z,55.75
2022-09-30T07:00:50.171Z,54.95
2022-09-30T07:01:50.164Z,55.75
2022-09-30T07:02:50.116Z,54.79
2022-09-30T07:03:54.021Z,56.40
2022-09-30T07:04:51.089Z,56.88
2022-09-30T07:05:50.110Z,54.79
2022-09-30T07:06:50.474Z,55.27
2022-09-30T07:07:50.074Z,53.01
2022-09-30T07:08:50.082Z,54.95
2022-09-30T07:09:50.209Z,56.24
2022-09-30T07:10:50.049Z,56.40
2022-09-30T07:11:50.066Z,55.59
2022-09-30T07:12:50.041Z,53.01
2022-09-30T07:13:50.034Z,56.07
2022-09-30T07:14:50.048Z,56.07
2022-09-30T07:15:50.014Z,55.27
2022-09-30T07:16:50.058Z,55.91
2022-09-30T07:17:50.021Z,55.27
2022-09-30T07:18:49.997Z,55.27
2022-09-30T07:19:50.015Z,54.62
2022-09-30T07:20:49.975Z,53.82
2022-09-30T07:21:50.985Z,54.79
2022-09-30T07:22:49.976Z,54.95
2022-09-30T07:23:49.965Z,56.24
2022-09-30T07:24:49.971Z,53.17
2022-09-30T07:25:49.974Z,58.01
2022-09-30T07:26:49.947Z,56.40
2022-09-30T07:27:49.941Z,56.72
2022-09-30T07:28:49.930Z,57.85
2022-09-30T07:30:08.140Z,57.04
2022-09-30T07:31:03.497Z,54.79
2022-09-30T07:31:50.990Z,55.27
2022-09-30T07:32:49.906Z,57.20
2022-09-30T07:33:49.899Z,55.59
2022-09-30T07:34:49.893Z,53.01
2022-09-30T07:35:49.886Z,54.30
2022-09-30T07:36:49.880Z,52.69
2022-09-30T07:37:49.871Z,56.07
2022-09-30T07:38:49.864Z,57.69
2022-09-30T07:39:49.883Z,56.24
2022-09-30T07:40:49.879Z,56.24
2022-09-30T07:41:49.857Z,54.14
2022-09-30T07:42:49.894Z,55.59
2022-09-30T07:43:49.839Z,55.59
2022-09-30T07:44:49.829Z,56.07
2022-09-30T07:45:49.871Z,54.62
2022-09-30T07:46:49.825Z,54.62
2022-09-30T07:47:53.703Z,54.30
2022-09-30T07:48:50.819Z,53.98
2022-09-30T07:49:49.801Z,54.46
2022-09-30T07:50:49.807Z,54.79
2022-09-30T07:51:49.773Z,55.43
2022-09-30T07:52:49.782Z,54.62
2022-09-30T07:53:49.774Z,56.07
2022-09-30T07:54:50.798Z,55.59
2022-09-30T07:55:49.766Z,56.72
2022-09-30T07:57:19.563Z,56.24
2022-09-30T07:57:51.747Z,53.82
2022-09-30T07:58:49.742Z,54.30
2022-09-30T07:59:49.733Z,55.27
2022-09-30T08:00:49.754Z,55.59
2022-09-30T08:01:49.828Z,55.11
2022-09-30T08:02:49.710Z,52.85
2022-09-30T08:03:49.706Z,54.30
2022-09-30T08:04:49.701Z,56.72
2022-09-30T08:05:49.699Z,56.56
2022-09-30T08:06:49.702Z,57.20
2022-09-30T08:07:49.681Z,56.40
2022-09-30T08:08:49.675Z,53.82
2022-09-30T08:09:49.708Z,53.82
2022-09-30T08:10:49.660Z,55.75
2022-09-30T08:11:49.651Z,53.50
2022-09-30T08:12:49.662Z,53.98
2022-09-30T08:13:49.630Z,53.33
2022-09-30T08:14:49.629Z,55.59
2022-09-30T08:15:49.618Z,56.24
2022-09-30T08:16:49.666Z,56.24
2022-09-30T08:17:49.618Z,56.24
2022-09-30T08:18:49.602Z,56.40
2022-09-30T08:19:49.610Z,54.79
2022-09-30T08:20:49.586Z,55.91
2022-09-30T08:21:49.666Z,53.82
2022-09-30T08:22:49.589Z,55.43
2022-09-30T08:23:49.566Z,56.72
2022-09-30T08:24:49.570Z,54.30
2022-09-30T08:25:49.589Z,52.53
2022-09-30T08:26:49.603Z,53.82
2022-09-30T08:27:49.565Z,54.14
2022-09-30T08:28:49.551Z,54.79
2022-09-30T08:29:55.214Z,53.66
2022-09-30T08:30:51.518Z,56.72
2022-09-30T08:31:49.544Z,55.75
2022-09-30T08:32:49.505Z,56.07
2022-09-30T08:33:49.498Z,54.14
2022-09-30T08:34:49.489Z,52.85
2022-09-30T08:35:49.490Z,54.46
2022-09-30T08:36:49.473Z,54.79
2022-09-30T08:37:49.470Z,53.66
2022-09-30T08:38:49.449Z,56.40
2022-09-30T08:39:49.445Z,55.91
2022-09-30T08:40:49.441Z,55.59
2022-09-30T08:41:49.431Z,56.88
2022-09-30T08:42:52.946Z,53.98
2022-09-30T08:43:50.451Z,54.62
2022-09-30T08:44:49.411Z,54.30
2022-09-30T08:45:49.475Z,54.30
2022-09-30T08:46:49.409Z,54.79
2022-09-30T08:47:49.390Z,56.88
2022-09-30T08:48:49.402Z,57.52
2022-09-30T08:49:49.381Z,54.62
2022-09-30T08:50:49.375Z,54.30
2022-09-30T08:51:49.365Z,54.79
2022-09-30T08:52:49.664Z,54.14
2022-09-30T08:53:49.350Z,52.21
2022-09-30T08:54:49.354Z,53.82
2022-09-30T08:55:49.334Z,55.59
2022-09-30T08:56:49.317Z,54.79
2022-09-30T08:57:49.350Z,55.27
2022-09-30T08:58:49.310Z,56.24
2022-09-30T08:59:49.314Z,56.72
2022-09-30T09:00:49.364Z,56.40
2022-09-30T09:01:49.331Z,55.75
2022-09-30T09:02:49.362Z,54.79
2022-09-30T09:03:49.281Z,54.30
2022-09-30T09:04:49.293Z,55.75
2022-09-30T09:05:52.348Z,53.98
2022-09-30T09:06:49.261Z,55.75
2022-09-30T09:07:49.286Z,56.40
2022-09-30T09:08:49.244Z,55.91
2022-09-30T09:09:49.237Z,55.11
2022-09-30T09:10:49.245Z,55.75
2022-09-30T09:11:49.265Z,54.14
2022-09-30T09:12:49.217Z,54.95
2022-09-30T09:13:49.217Z,54.30
2022-09-30T09:14:49.209Z,53.82
2022-09-30T09:15:49.217Z,53.33
2022-09-30T09:16:49.235Z,54.62
2022-09-30T09:18:10.894Z,55.27
2022-09-30T09:18:51.189Z,53.33
2022-09-30T09:19:49.185Z,55.59
2022-09-30T09:20:49.165Z,54.95
2022-09-30T09:21:49.149Z,54.79
2022-09-30T09:22:49.165Z,57.04
2022-09-30T09:23:49.157Z,56.24
2022-09-30T09:24:49.137Z,55.43
2022-09-30T09:25:49.137Z,55.91
2022-09-30T09:26:49.138Z,55.59
2022-09-30T09:27:49.133Z,54.79
2022-09-30T09:28:51.687Z,54.79
2022-09-30T09:29:49.105Z,56.07
2022-09-30T09:30:49.109Z,56.72
2022-09-30T09:31:49.159Z,55.11
2022-09-30T09:32:49.090Z,52.85
2022-09-30T09:33:49.072Z,53.50
2022-09-30T09:34:49.064Z,54.95
2022-09-30T09:35:49.096Z,54.95
2022-09-30T09:36:49.053Z,54.14
2022-09-30T09:37:49.050Z,54.30
2022-09-30T09:38:49.041Z,53.82
2022-09-30T09:39:49.031Z,54.95
2022-09-30T09:40:49.053Z,52.53
2022-09-30T09:41:49.013Z,52.85
2022-09-30T09:42:48.998Z,53.01
2022-09-30T09:43:49.005Z,52.21
2022-09-30T09:44:49.005Z,55.27
2022-09-30T09:45:49.066Z,54.62
2022-09-30T09:46:48.986Z,55.11
2022-09-30T09:47:48.978Z,56.40
2022-09-30T09:48:48.978Z,56.40
2022-09-30T09:49:50.146Z,54.62
2022-09-30T09:50:48.973Z,53.17
2022-09-30T09:51:48.954Z,53.98
2022-09-30T09:52:48.945Z,52.85
2022-09-30T09:53:48.933Z,52.69
2022-09-30T09:54:48.929Z,53.82
2022-09-30T09:55:48.949Z,54.62
2022-09-30T09:56:48.913Z,54.14
2022-09-30T09:57:48.909Z,53.17
2022-09-30T09:59:48.919Z,52.53
2022-09-30T10:00:48.995Z,51.24
2022-09-30T10:01:48.902Z,53.50
2022-09-30T10:02:48.878Z,52.85
2022-09-30T10:03:48.872Z,52.37
2022-09-30T10:04:48.861Z,53.01
2022-09-30T10:05:48.866Z,51.40
2022-09-30T10:06:48.865Z,52.85
2022-09-30T10:07:48.840Z,51.24
2022-09-30T10:08:48.833Z,50.11
2022-09-30T10:09:48.832Z,50.76
2022-09-30T10:10:48.818Z,51.56
2022-09-30T10:11:48.841Z,51.40
2022-09-30T10:12:48.820Z,53.33
2022-09-30T10:13:48.801Z,52.53
2022-09-30T10:14:48.802Z,52.69
2022-09-30T10:15:48.860Z,52.69
2022-09-30T10:16:48.805Z,51.72
2022-09-30T10:17:48.777Z,52.85
2022-09-30T10:18:48.773Z,53.17
2022-09-30T10:19:48.760Z,52.21
2022-09-30T10:20:48.781Z,53.82
2022-09-30T10:21:51.860Z,53.33
2022-09-30T10:22:48.740Z,53.66
2022-09-30T10:23:48.741Z,53.98
2022-09-30T10:24:48.738Z,53.66
2022-09-30T10:25:48.730Z,52.53
2022-09-30T10:26:49.321Z,51.56
2022-09-30T10:27:48.765Z,52.69
2022-09-30T10:28:48.725Z,53.66
2022-09-30T10:29:48.692Z,51.40
2022-09-30T10:30:48.684Z,50.27
2022-09-30T10:31:48.722Z,51.88
2022-09-30T10:32:48.692Z,51.72
2022-09-30T10:33:48.671Z,51.88
2022-09-30T10:34:48.678Z,52.69
2022-09-30T10:35:48.670Z,50.60
2022-09-30T10:36:48.652Z,50.27
2022-09-30T10:37:51.489Z,50.60
2022-09-30T10:38:49.648Z,52.85
2022-09-30T10:39:48.642Z,52.05
2022-09-30T10:40:48.629Z,52.21
2022-09-30T10:41:48.634Z,51.88
2022-09-30T10:42:48.626Z,51.88
2022-09-30T10:43:48.608Z,52.05
2022-09-30T10:44:48.625Z,50.27
2022-09-30T10:46:01.490Z,51.72
2022-09-30T10:46:49.639Z,53.17
2022-09-30T10:47:48.584Z,52.37
2022-09-30T10:48:48.599Z,51.08
2022-09-30T10:49:48.574Z,50.11
2022-09-30T10:50:48.583Z,51.56
2022-09-30T10:51:48.564Z,51.08
2022-09-30T10:52:48.591Z,53.17
2022-09-30T10:53:48.554Z,50.11
2022-09-30T10:54:48.562Z,51.88
2022-09-30T10:55:48.546Z,50.92
2022-09-30T10:56:48.519Z,51.88
2022-09-30T10:57:49.528Z,51.88
2022-09-30T10:58:48.628Z,50.11
2022-09-30T10:59:48.529Z,48.82
2022-09-30T11:00:48.548Z,49.79
2022-09-30T11:01:50.416Z,50.60
2022-09-30T11:02:50.601Z,49.47
2022-09-30T11:03:48.567Z,48.98
2022-09-30T11:04:48.504Z,49.79
2022-09-30T11:05:48.481Z,49.15
2022-09-30T11:06:48.496Z,51.24
2022-09-30T11:07:48.479Z,49.63
2022-09-30T11:08:48.461Z,50.11
2022-09-30T11:09:48.472Z,50.76
2022-09-30T11:10:48.461Z,49.63
2022-09-30T11:11:48.497Z,49.79
2022-09-30T11:12:48.445Z,51.08
2022-09-30T11:13:48.449Z,51.40
2022-09-30T11:14:48.468Z,51.72
2022-09-30T11:15:48.424Z,51.72
2022-09-30T11:16:48.511Z,52.69
2022-09-30T11:17:48.427Z,52.53
2022-09-30T11:18:48.420Z,52.37
2022-09-30T11:19:48.417Z,51.24
2022-09-30T11:20:48.407Z,50.76
2022-09-30T11:21:48.441Z,50.92
2022-09-30T11:22:48.396Z,51.40
2022-09-30T11:23:48.400Z,52.85
2022-09-30T11:24:48.435Z,54.14
2022-09-30T11:25:48.376Z,53.17
2022-09-30T11:26:49.034Z,52.85
2022-09-30T11:27:48.391Z,53.17
2022-09-30T11:28:48.372Z,52.21
2022-09-30T11:29:48.352Z,53.33
2022-09-30T11:30:48.363Z,52.69
2022-09-30T11:31:48.460Z,53.82
2022-09-30T11:32:48.384Z,52.21
2022-09-30T11:33:48.324Z,51.72
2022-09-30T11:34:48.322Z,52.85
2022-09-30T11:35:48.320Z,51.24
2022-09-30T11:36:48.319Z,50.92
2022-09-30T11:37:48.288Z,52.05
2022-09-30T11:38:49.336Z,52.37
2022-09-30T11:39:48.297Z,51.56
2022-09-30T11:40:48.285Z,53.66
2022-09-30T11:41:48.332Z,53.82
2022-09-30T11:42:48.272Z,53.17
2022-09-30T11:43:48.276Z,52.69
2022-09-30T11:44:48.264Z,52.69
2022-09-30T11:45:48.319Z,52.69
2022-09-30T11:46:48.271Z,54.62
2022-09-30T11:47:48.233Z,54.30
2022-09-30T11:48:48.244Z,52.69
2022-09-30T11:49:48.245Z,51.72
2022-09-30T11:50:48.220Z,53.50
2022-09-30T11:51:48.224Z,54.79
2022-09-30T11:52:48.219Z,54.79
2022-09-30T11:53:48.240Z,54.62
2022-09-30T11:54:48.191Z,53.33
2022-09-30T11:55:48.204Z,54.14
2022-09-30T11:56:48.195Z,54.14
2022-09-30T11:57:48.192Z,53.50
2022-09-30T11:58:48.176Z,54.14
2022-09-30T11:59:48.164Z,53.17
2022-09-30T12:00:48.200Z,53.01
2022-09-30T12:01:48.260Z,53.82
2022-09-30T12:02:48.217Z,51.72
2022-09-30T12:03:48.146Z,52.69
2022-09-30T12:04:48.132Z,53.66
2022-09-30T12:05:48.136Z,51.72
2022-09-30T12:06:48.124Z,53.17
2022-09-30T12:07:48.153Z,53.66
2022-09-30T12:08:48.144Z,53.98
2022-09-30T12:09:48.104Z,52.53
2022-09-30T12:10:48.112Z,52.69
2022-09-30T12:11:48.103Z,51.08
2022-09-30T12:12:48.104Z,51.72
2022-09-30T12:13:48.098Z,52.85
2022-09-30T12:14:48.088Z,53.17
2022-09-30T12:15:48.071Z,55.11
2022-09-30T12:16:48.203Z,52.37
2022-09-30T12:17:48.063Z,53.17
2022-09-30T12:18:48.060Z,54.14
2022-09-30T12:19:48.061Z,53.66
2022-09-30T12:20:48.072Z,51.72
2022-09-30T12:21:48.048Z,51.56
2022-09-30T12:22:48.043Z,51.24
2022-09-30T12:23:48.041Z,51.56
2022-09-30T12:24:48.029Z,51.88
2022-09-30T12:25:48.032Z,54.14
2022-09-30T12:26:48.025Z,52.21
2022-09-30T12:27:48.045Z,53.17
2022-09-30T12:28:48.033Z,53.17
2022-09-30T12:29:47.999Z,53.17
2022-09-30T12:30:48.004Z,53.98
2022-09-30T12:31:48.069Z,54.95
2022-09-30T12:32:47.991Z,54.62
2022-09-30T12:33:47.988Z,54.95
2022-09-30T12:34:47.968Z,52.53
2022-09-30T12:35:47.967Z,52.53
2022-09-30T12:36:47.955Z,52.21
2022-09-30T12:37:48.009Z,53.17
2022-09-30T12:38:47.965Z,53.66
2022-09-30T12:39:47.942Z,55.59
2022-09-30T12:40:52.443Z,55.75
2022-09-30T12:41:48.922Z,54.62
2022-09-30T12:42:47.923Z,56.24
2022-09-30T12:43:47.907Z,56.72
2022-09-30T12:44:47.925Z,54.62
2022-09-30T12:45:47.950Z,54.46
2022-09-30T12:46:47.902Z,54.95
2022-09-30T12:47:47.893Z,54.95
2022-09-30T12:48:47.881Z,53.66
2022-09-30T12:49:47.897Z,55.27
2022-09-30T12:50:47.872Z,54.14
2022-09-30T12:51:47.869Z,53.33
2022-09-30T12:52:47.863Z,55.11
2022-09-30T12:53:47.857Z,55.11